Terminal Aerodrome Forecast
Issued by NWS Birmingham, AL

Home | Current Version | Previous Version | Text Only | Print | Product List | Glossary On
Versions: 1 2 3 4 5 6 7 8 9 10 11 12 13 14 15 16
452
FTUS44 KBMX 251724
TAFBHM
TAF
KBHM 251724Z 2518/2618 17006KT P6SM FEW050 SCT250
     FM252100 14006KT P6SM VCSH SCT050 SCT250
     FM260100 16003KT P6SM SCT250=

USA.gov is the U.S. government's official web portal to all federal, state and local government web resources and services.